createdAt,value
2023-05-17T00:03:31.173Z,30.18
2023-05-17T00:06:19.652Z,30.02
2023-05-17T00:09:46.253Z,30.18
2023-05-17T00:15:26.958Z,30.02
2023-05-17T00:18:28.265Z,30.19
2023-05-17T00:24:28.364Z,30.15
2023-05-17T00:27:17.874Z,30.21
2023-05-17T00:29:51.411Z,30.25
2023-05-17T00:32:20.809Z,30.19
2023-05-17T00:39:01.296Z,30.27
2023-05-17T00:41:30.987Z,30.28
2023-05-17T00:44:00.126Z,30.19
2023-05-17T00:49:47.135Z,30.18
2023-05-17T00:52:16.416Z,30.08
2023-05-17T00:54:46.618Z,30.11
2023-05-17T00:58:14.780Z,30.26
2023-05-17T01:08:52.264Z,30.77
2023-05-17T01:26:58.657Z,29.95
2023-05-17T01:30:19.013Z,30.58
2023-05-17T01:33:10.820Z,30.29
2023-05-17T01:35:59.192Z,30.50
2023-05-17T01:48:25.195Z,30.65
2023-05-17T01:54:31.734Z,30.72
2023-05-17T02:06:48.328Z,31.22
2023-05-17T02:15:54.230Z,31.81
2023-05-17T02:19:10.013Z,31.83
2023-05-17T02:22:01.655Z,31.85
2023-05-17T02:27:51.879Z,31.74
2023-05-17T02:39:57.384Z,32.20
2023-05-17T02:42:50.913Z,32.41
2023-05-17T03:01:59.494Z,32.89
2023-05-17T03:18:19.684Z,33.94
2023-05-17T03:21:19.299Z,34.09
2023-05-17T03:24:19.375Z,34.28
2023-05-17T03:27:09.322Z,34.46
2023-05-17T03:48:18.458Z,35.46
2023-05-17T03:51:09.919Z,35.69
2023-05-17T03:57:28.049Z,35.83
2023-05-17T04:00:29.603Z,36.13
2023-05-17T04:06:15.887Z,36.56
2023-05-17T04:09:15.293Z,36.83
2023-05-17T04:14:55.830Z,36.98
2023-05-17T04:21:16.971Z,37.66
2023-05-17T04:30:29.728Z,38.10
2023-05-17T04:42:53.365Z,38.73
2023-05-17T04:49:16.584Z,39.40
2023-05-17T04:58:26.789Z,39.67
2023-05-17T05:04:21.636Z,39.52
2023-05-17T05:07:18.944Z,39.95
2023-05-17T05:22:46.098Z,40.39
2023-05-17T05:26:13.656Z,40.52
2023-05-17T05:43:26.380Z,41.11
2023-05-17T05:46:16.318Z,41.23
2023-05-17T05:53:18.281Z,41.17
2023-05-17T05:59:44.793Z,41.44
2023-05-17T06:19:50.807Z,41.68
2023-05-17T06:22:48.777Z,41.96
2023-05-17T06:29:25.690Z,41.81
2023-05-17T06:35:23.827Z,42.10
2023-05-17T06:38:29.992Z,42.44
2023-05-17T06:40:59.823Z,42.27
2023-05-17T06:43:29.021Z,42.13
2023-05-17T06:45:59.515Z,42.41
2023-05-17T06:48:29.306Z,42.26
2023-05-17T06:51:25.633Z,42.23
2023-05-17T06:54:29.028Z,41.91
2023-05-17T06:57:31.586Z,42.21
2023-05-17T07:00:23.525Z,42.24
2023-05-17T07:03:19.038Z,42.56
2023-05-17T07:09:38.786Z,42.82
2023-05-17T07:12:48.811Z,42.52
2023-05-17T07:46:24.147Z,43.24
2023-05-17T07:56:04.359Z,43.92
2023-05-17T08:01:16.490Z,43.97
2023-05-17T08:14:18.264Z,43.84
2023-05-17T08:16:52.804Z,43.93
2023-05-17T08:19:30.232Z,43.68
2023-05-17T08:22:00.273Z,44.01
2023-05-17T08:30:56.812Z,43.82
2023-05-17T08:33:28.710Z,43.48
2023-05-17T08:36:00.148Z,43.58
2023-05-17T08:39:01.449Z,43.26
2023-05-17T08:42:56.734Z,43.55
2023-05-17T08:45:29.248Z,43.75
2023-05-17T08:47:59.575Z,43.87
2023-05-17T08:50:31.601Z,43.89
2023-05-17T08:57:19.478Z,43.61
2023-05-17T09:11:37.813Z,43.54
2023-05-17T09:24:32.482Z,42.93
2023-05-17T10:11:50.962Z,42.68
2023-05-17T10:19:06.033Z,42.84
2023-05-17T10:25:28.080Z,42.69
2023-05-17T10:35:12.057Z,42.55
2023-05-17T10:38:10.005Z,42.31
2023-05-17T10:41:45.708Z,42.48
2023-05-17T11:16:39.868Z,42.52
2023-05-17T11:34:23.833Z,42.29
2023-05-17T12:09:32.488Z,41.53
2023-05-17T12:12:28.978Z,41.34
2023-05-17T12:15:21.913Z,41.21
2023-05-17T12:18:12.251Z,40.85
2023-05-17T12:21:02.487Z,40.89
2023-05-17T12:23:55.116Z,41.07
2023-05-17T12:26:48.962Z,40.88
2023-05-17T12:29:38.505Z,40.69
2023-05-17T12:32:26.882Z,40.64
2023-05-17T12:34:56.253Z,40.46
2023-05-17T12:37:25.369Z,40.50
2023-05-17T12:39:54.969Z,40.69
2023-05-17T12:42:24.035Z,40.60
2023-05-17T12:44:53.299Z,40.40
2023-05-17T12:47:22.571Z,40.45
2023-05-17T12:49:58.201Z,40.58
2023-05-17T12:52:27.694Z,40.33
2023-05-17T12:55:00.702Z,40.34
2023-05-17T12:57:29.988Z,40.22
2023-05-17T13:00:08.846Z,40.21
2023-05-17T13:02:38.404Z,39.95
2023-05-17T13:05:22.421Z,40.01
2023-05-17T13:07:51.757Z,39.82
2023-05-17T13:10:28.764Z,39.83
2023-05-17T13:13:02.094Z,39.73
2023-05-17T13:15:35.004Z,39.59
2023-05-17T13:18:19.064Z,39.60
2023-05-17T13:20:52.426Z,39.41
2023-05-17T13:23:21.916Z,39.36
2023-05-17T13:25:51.623Z,39.32
2023-05-17T13:28:21.061Z,39.25
2023-05-17T13:30:53.271Z,39.17
2023-05-17T13:33:22.651Z,39.03
2023-05-17T13:35:51.809Z,38.96
2023-05-17T13:38:21.043Z,38.90
2023-05-17T13:40:50.060Z,38.85
2023-05-17T13:43:19.877Z,38.76
2023-05-17T13:45:52.138Z,38.71
2023-05-17T13:48:22.152Z,38.68
2023-05-17T13:50:52.018Z,38.65
2023-05-17T13:53:21.525Z,38.62
2023-05-17T13:55:51.036Z,38.55
2023-05-17T13:58:20.044Z,38.51
2023-05-17T14:00:49.428Z,38.43
2023-05-17T14:03:18.541Z,38.39
2023-05-17T14:05:50.803Z,38.31
2023-05-17T14:08:21.257Z,38.22
2023-05-17T14:10:50.731Z,38.21
2023-05-17T14:13:19.675Z,38.16
2023-05-17T14:15:49.054Z,38.12
2023-05-17T14:18:18.247Z,38.14
2023-05-17T14:20:48.125Z,38.14
2023-05-17T14:23:17.238Z,38.13
2023-05-17T14:25:46.358Z,38.08
2023-05-17T14:28:16.076Z,37.91
2023-05-17T14:30:45.769Z,38.00
2023-05-17T14:33:14.947Z,37.92
2023-05-17T14:35:44.174Z,37.92
2023-05-17T14:38:13.243Z,37.85
2023-05-17T14:40:42.429Z,37.82
2023-05-17T14:43:11.620Z,37.83
2023-05-17T14:45:40.806Z,37.82
2023-05-17T14:48:10.041Z,37.79
2023-05-17T14:54:39.132Z,37.77
2023-05-17T14:57:09.369Z,37.67
2023-05-17T14:59:39.027Z,37.46
2023-05-17T15:02:08.740Z,37.44
2023-05-17T15:04:38.693Z,37.41
2023-05-17T15:07:08.000Z,37.34
2023-05-17T15:13:36.437Z,37.42
2023-05-17T15:16:05.743Z,37.38
2023-05-17T15:18:34.783Z,37.34
2023-05-17T15:21:04.289Z,37.26
2023-05-17T15:23:33.461Z,37.17
2023-05-17T15:29:48.688Z,37.22
2023-05-17T15:32:18.030Z,37.23
2023-05-17T15:34:47.164Z,37.28
2023-05-17T15:37:16.597Z,37.29
2023-05-17T15:39:45.876Z,37.27
2023-05-17T15:42:15.186Z,37.25
2023-05-17T15:44:44.394Z,37.15
2023-05-17T15:47:13.616Z,37.16
2023-05-17T15:49:42.644Z,37.06
2023-05-17T15:52:13.933Z,35.67
2023-05-17T15:54:43.423Z,34.13
2023-05-17T15:57:12.414Z,33.42
2023-05-17T15:59:41.915Z,32.73
2023-05-17T16:02:10.900Z,32.59
2023-05-17T16:04:40.110Z,32.26
2023-05-17T16:07:09.120Z,31.81
2023-05-17T16:09:38.413Z,31.88
2023-05-17T16:12:07.847Z,31.85
2023-05-17T16:14:38.152Z,31.62
2023-05-17T16:17:07.436Z,31.15
2023-05-17T16:19:36.657Z,31.25
2023-05-17T16:22:06.116Z,31.05
2023-05-17T16:24:35.233Z,30.97
2023-05-17T16:27:07.239Z,30.78
2023-05-17T16:29:40.837Z,30.77
2023-05-17T16:32:10.148Z,30.85
2023-05-17T16:34:39.184Z,30.57
2023-05-17T16:37:08.485Z,30.27
2023-05-17T16:39:40.668Z,30.47
2023-05-17T16:42:09.564Z,30.76
2023-05-17T16:44:38.665Z,30.74
2023-05-17T16:47:07.983Z,30.71
2023-05-17T16:49:37.972Z,30.73
2023-05-17T16:52:07.335Z,30.56
2023-05-17T16:54:39.769Z,30.47
2023-05-17T16:57:09.673Z,30.29
2023-05-17T16:59:39.078Z,30.49
2023-05-17T17:02:09.276Z,30.57
2023-05-17T17:04:38.595Z,30.59
2023-05-17T17:07:07.770Z,30.59
2023-05-17T17:09:38.560Z,30.54
2023-05-17T17:12:20.499Z,30.56
2023-05-17T17:14:53.430Z,30.46
2023-05-17T17:17:22.548Z,30.53
2023-05-17T17:19:52.203Z,30.66
2023-05-17T17:22:21.268Z,30.70
2023-05-17T17:24:50.570Z,30.57
2023-05-17T17:27:19.612Z,30.67
2023-05-17T17:29:48.878Z,30.95
2023-05-17T17:32:17.970Z,31.02
2023-05-17T17:34:47.209Z,30.81
2023-05-17T17:37:16.629Z,30.88
2023-05-17T17:39:45.941Z,30.81
2023-05-17T17:42:15.061Z,31.03
2023-05-17T17:44:44.450Z,30.86
2023-05-17T17:47:13.843Z,30.85
2023-05-17T17:49:43.176Z,30.70
2023-05-17T17:52:12.306Z,30.74
2023-05-17T17:54:41.695Z,30.46
2023-05-17T17:57:11.056Z,30.30
2023-05-17T17:59:41.315Z,30.58
2023-05-17T18:02:11.095Z,30.57
2023-05-17T18:04:41.763Z,30.37
2023-05-17T18:07:13.344Z,30.43
2023-05-17T18:09:43.013Z,30.49
2023-05-17T18:12:12.356Z,30.57
2023-05-17T18:14:41.980Z,30.50
2023-05-17T18:17:11.531Z,30.54
2023-05-17T18:19:40.699Z,30.55
2023-05-17T18:22:10.147Z,30.61
2023-05-17T18:24:39.202Z,30.69
2023-05-17T18:27:14.171Z,30.54
2023-05-17T18:29:43.651Z,30.85
2023-05-17T18:32:13.570Z,30.88
2023-05-17T18:34:42.716Z,30.83
2023-05-17T18:37:12.525Z,30.97
2023-05-17T18:39:41.842Z,30.70
2023-05-17T18:42:10.896Z,30.62
2023-05-17T18:44:40.247Z,30.86
2023-05-17T18:47:09.727Z,30.73
2023-05-17T18:49:46.094Z,30.83
2023-05-17T18:52:15.551Z,30.78
2023-05-17T18:54:44.981Z,30.75
2023-05-17T18:57:16.053Z,30.76
2023-05-17T18:59:45.526Z,30.83
2023-05-17T19:02:17.587Z,30.59
2023-05-17T19:04:46.597Z,30.87
2023-05-17T19:07:15.930Z,30.52
2023-05-17T19:09:45.519Z,30.59
2023-05-17T19:12:15.246Z,30.53
2023-05-17T19:14:51.743Z,30.59
2023-05-17T19:17:21.159Z,30.66
2023-05-17T19:19:50.218Z,30.96
2023-05-17T19:22:19.686Z,30.98
2023-05-17T19:24:48.870Z,31.07
2023-05-17T19:27:20.726Z,30.91
2023-05-17T19:29:50.043Z,30.92
2023-05-17T19:32:21.064Z,31.05
2023-05-17T19:34:50.777Z,31.12
2023-05-17T19:37:20.087Z,31.12
2023-05-17T19:39:49.454Z,31.27
2023-05-17T19:42:19.258Z,31.25
2023-05-17T19:44:48.805Z,31.19
2023-05-17T19:47:18.207Z,30.97
2023-05-17T19:49:47.416Z,30.58
2023-05-17T19:52:17.468Z,30.24
2023-05-17T19:54:48.940Z,30.15
2023-05-17T19:57:18.190Z,29.75
2023-05-17T19:59:50.039Z,29.46
2023-05-17T20:02:20.898Z,29.59
2023-05-17T20:04:50.079Z,29.24
2023-05-17T20:07:19.603Z,28.89
2023-05-17T20:09:50.726Z,28.71
2023-05-17T20:12:20.025Z,28.51
2023-05-17T20:14:49.732Z,28.47
2023-05-17T20:17:19.275Z,28.35
2023-05-17T20:19:48.823Z,28.11
2023-05-17T20:22:18.914Z,28.01
2023-05-17T20:24:49.013Z,27.83
2023-05-17T20:27:18.531Z,27.74
2023-05-17T20:29:48.169Z,27.60
2023-05-17T20:32:18.402Z,27.49
2023-05-17T20:34:47.426Z,27.50
2023-05-17T20:37:16.592Z,27.51
2023-05-17T20:39:47.426Z,27.50
2023-05-17T20:42:20.727Z,27.31
2023-05-17T20:44:50.438Z,27.33
2023-05-17T20:47:19.431Z,27.23
2023-05-17T20:49:51.207Z,26.99
2023-05-17T20:52:38.206Z,26.91
2023-05-17T20:55:12.888Z,27.00
2023-05-17T20:57:42.988Z,26.75
2023-05-17T21:00:13.244Z,26.47
2023-05-17T21:02:42.904Z,26.27
2023-05-17T21:05:12.296Z,26.20
2023-05-17T21:07:41.621Z,26.25
2023-05-17T21:10:11.211Z,26.16
2023-05-17T21:12:41.252Z,26.05
2023-05-17T21:15:17.143Z,26.04
2023-05-17T21:17:49.033Z,26.03
2023-05-17T21:20:18.416Z,26.15
2023-05-17T21:22:47.518Z,26.05
2023-05-17T21:25:16.853Z,26.09
2023-05-17T21:27:46.044Z,25.91
2023-05-17T21:30:15.241Z,26.00
2023-05-17T21:32:44.617Z,25.80
2023-05-17T21:35:13.822Z,25.85
2023-05-17T21:37:43.289Z,26.03
2023-05-17T21:40:12.765Z,26.13
2023-05-17T21:42:42.758Z,26.10
2023-05-17T21:45:13.963Z,25.83
2023-05-17T21:47:43.395Z,25.69
2023-05-17T21:50:12.677Z,26.00
2023-05-17T21:52:42.047Z,25.85
2023-05-17T21:55:11.792Z,25.90
2023-05-17T21:57:41.048Z,25.75
2023-05-17T22:00:14.017Z,25.78
2023-05-17T22:02:46.489Z,26.13
2023-05-17T22:05:16.050Z,26.23
2023-05-17T22:07:45.159Z,26.30
2023-05-17T22:10:15.467Z,26.27
2023-05-17T22:12:44.710Z,26.37
2023-05-17T22:15:14.639Z,26.34
2023-05-17T22:17:51.683Z,26.45
2023-05-17T22:20:25.196Z,26.22
2023-05-17T22:22:55.247Z,26.34
2023-05-17T22:25:24.488Z,26.50
2023-05-17T22:27:53.865Z,26.42
2023-05-17T22:30:23.289Z,26.42
2023-05-17T22:32:55.903Z,26.62
2023-05-17T22:35:25.808Z,26.75
2023-05-17T22:37:54.801Z,26.74
2023-05-17T22:40:24.704Z,26.81
2023-05-17T22:42:53.729Z,26.72
2023-05-17T22:45:23.565Z,26.71
2023-05-17T22:47:55.283Z,26.71
2023-05-17T22:50:25.611Z,26.66
2023-05-17T22:52:55.379Z,26.53
2023-05-17T22:55:27.202Z,26.47
2023-05-17T22:57:56.782Z,26.47
2023-05-17T23:00:28.623Z,26.34
2023-05-17T23:02:58.645Z,26.43
2023-05-17T23:05:27.761Z,26.70
2023-05-17T23:07:57.102Z,26.72
2023-05-17T23:10:26.289Z,26.22
2023-05-17T23:12:59.611Z,26.44
2023-05-17T23:15:29.811Z,26.12
2023-05-17T23:18:00.590Z,26.03
2023-05-17T23:20:30.471Z,26.04
2023-05-17T23:23:00.575Z,25.73
2023-05-17T23:25:30.707Z,25.74
2023-05-17T23:28:00.059Z,25.93
2023-05-17T23:30:30.721Z,25.80
2023-05-17T23:33:01.218Z,26.00
2023-05-17T23:35:37.546Z,26.01
2023-05-17T23:38:08.266Z,26.04
2023-05-17T23:40:38.163Z,25.94
2023-05-17T23:43:07.248Z,25.99
2023-05-17T23:45:36.650Z,26.13
2023-05-17T23:48:05.795Z,26.32
2023-05-17T23:50:34.990Z,26.26
2023-05-17T23:53:05.639Z,26.38
2023-05-17T23:55:34.835Z,26.25
2023-05-17T23:58:03.996Z,26.21
